IAE142 UIKB-UIII
Flight info
| Callsign | IAE142 |
|---|---|
| Flight time | 2h 22m |
| Altitude | 18000 |
| Route | K0445F180 UTANA W269 GARAK W225 KA |
| Aircraft | AN24/M-I/L |
Departure
| Time | 2026-04-28 09:34 |
|---|---|
| Airport | Bodaybo Airport (UIKB) |
Arrival
| Time | 2026-04-28 11:57 |
|---|---|
| Airport | Irkutsk International Airport (UIII) |
| Time | Latitude | Longitude | Altitude | Speed | Heading |
|---|---|---|---|---|---|
| 2026-04-28 09:04 | 57.86147 | 114.23394 | 903 ft | 0 kts | 326° |
| 2026-04-28 09:27 | 57.86149 | 114.23391 | 904 ft | 3 kts | 326° |
| 2026-04-28 09:28 | 57.86167 | 114.23394 | 904 ft | 5 kts | 53° |
| 2026-04-28 09:28 | 57.86156 | 114.23470 | 902 ft | 7 kts | 107° |
| 2026-04-28 09:28 | 57.86180 | 114.23568 | 902 ft | 11 kts | 52° |
| 2026-04-28 09:28 | 57.86230 | 114.23612 | 903 ft | 6 kts | 329° |
| 2026-04-28 09:29 | 57.86238 | 114.23601 | 905 ft | 1 kts | 320° |
| 2026-04-28 09:29 | 57.86263 | 114.23560 | 907 ft | 0 kts | 319° |
| 2026-04-28 09:30 | 57.86311 | 114.23542 | 910 ft | 7 kts | 46° |
| 2026-04-28 09:30 | 57.86404 | 114.23774 | 912 ft | 40 kts | 54° |
| 2026-04-28 09:31 | 57.86614 | 114.24303 | 912 ft | 51 kts | 54° |
| 2026-04-28 09:31 | 57.86801 | 114.24789 | 911 ft | 33 kts | 54° |
| 2026-04-28 09:31 | 57.86867 | 114.24925 | 910 ft | 5 kts | 308° |
| 2026-04-28 09:31 | 57.86832 | 114.24840 | 910 ft | 9 kts | 233° |
| 2026-04-28 09:32 | 57.86818 | 114.24804 | 910 ft | 0 kts | 232° |
| 2026-04-28 09:33 | 57.86654 | 114.24394 | 912 ft | 76 kts | 232° |
| 2026-04-28 09:33 | 57.86229 | 114.23330 | 920 ft | 122 kts | 234° |
| 2026-04-28 09:33 | 57.85693 | 114.21965 | 1165 ft | 135 kts | 234° |
| 2026-04-28 09:34 | 57.85120 | 114.20493 | 1463 ft | 145 kts | 234° |
| 2026-04-28 09:34 | 57.84496 | 114.18907 | 1717 ft | 159 kts | 234° |
| 2026-04-28 09:34 | 57.83820 | 114.17175 | 1978 ft | 171 kts | 234° |
| 2026-04-28 09:34 | 57.83116 | 114.15340 | 2326 ft | 177 kts | 235° |
| 2026-04-28 09:35 | 57.82404 | 114.13455 | 2706 ft | 176 kts | 236° |
| 2026-04-28 09:35 | 57.81696 | 114.11603 | 3063 ft | 177 kts | 236° |
| 2026-04-28 09:35 | 57.80981 | 114.09705 | 3379 ft | 179 kts | 237° |
| 2026-04-28 09:35 | 57.80278 | 114.07831 | 3773 ft | 175 kts | 237° |
| 2026-04-28 09:36 | 57.79561 | 114.06014 | 4135 ft | 174 kts | 237° |
| 2026-04-28 09:36 | 57.78841 | 114.04189 | 4428 ft | 176 kts | 237° |
| 2026-04-28 09:36 | 57.78101 | 114.02355 | 4735 ft | 176 kts | 237° |
| 2026-04-28 09:36 | 57.77365 | 114.00540 | 5042 ft | 176 kts | 237° |
| 2026-04-28 09:37 | 57.76629 | 113.98755 | 5418 ft | 173 kts | 237° |
| 2026-04-28 09:37 | 57.75915 | 113.96986 | 5734 ft | 171 kts | 238° |
| 2026-04-28 09:37 | 57.75190 | 113.95170 | 5969 ft | 175 kts | 239° |
| 2026-04-28 09:37 | 57.74470 | 113.93366 | 6317 ft | 171 kts | 239° |
| 2026-04-28 09:38 | 57.73766 | 113.91602 | 6637 ft | 170 kts | 239° |
| 2026-04-28 09:38 | 57.73063 | 113.89845 | 6889 ft | 171 kts | 240° |
| 2026-04-28 09:38 | 57.72355 | 113.88025 | 7103 ft | 174 kts | 239° |
| 2026-04-28 09:38 | 57.71628 | 113.86231 | 7404 ft | 173 kts | 238° |
| 2026-04-28 09:39 | 57.70879 | 113.84504 | 7697 ft | 172 kts | 237° |
| 2026-04-28 09:39 | 57.70145 | 113.82755 | 8002 ft | 169 kts | 240° |
| 2026-04-28 09:39 | 57.69456 | 113.81021 | 8304 ft | 167 kts | 241° |
| 2026-04-28 09:39 | 57.68768 | 113.79249 | 8538 ft | 167 kts | 241° |
| 2026-04-28 09:40 | 57.68098 | 113.77505 | 8760 ft | 168 kts | 242° |
| 2026-04-28 09:40 | 57.67407 | 113.75758 | 9013 ft | 168 kts | 240° |
| 2026-04-28 09:40 | 57.66718 | 113.74016 | 9280 ft | 166 kts | 242° |
| 2026-04-28 09:40 | 57.66045 | 113.72277 | 9566 ft | 163 kts | 243° |
| 2026-04-28 09:41 | 57.65391 | 113.70580 | 9817 ft | 161 kts | 242° |
| 2026-04-28 09:41 | 57.64735 | 113.68892 | 10012 ft | 163 kts | 242° |
| 2026-04-28 09:41 | 57.64064 | 113.67235 | 10322 ft | 160 kts | 241° |
| 2026-04-28 09:41 | 57.63370 | 113.65579 | 10486 ft | 163 kts | 241° |
| 2026-04-28 09:42 | 57.62675 | 113.63902 | 10690 ft | 164 kts | 241° |
| 2026-04-28 09:42 | 57.61998 | 113.62230 | 10958 ft | 160 kts | 242° |
| 2026-04-28 09:42 | 57.61330 | 113.60574 | 11141 ft | 162 kts | 242° |
| 2026-04-28 09:42 | 57.60654 | 113.58872 | 11313 ft | 164 kts | 243° |
| 2026-04-28 09:43 | 57.59974 | 113.57172 | 11527 ft | 164 kts | 242° |
| 2026-04-28 09:43 | 57.59296 | 113.55496 | 11745 ft | 163 kts | 243° |
| 2026-04-28 09:43 | 57.58630 | 113.53786 | 11927 ft | 164 kts | 243° |
| 2026-04-28 09:43 | 57.57952 | 113.52073 | 12125 ft | 163 kts | 243° |
| 2026-04-28 09:44 | 57.57282 | 113.50386 | 12327 ft | 162 kts | 243° |
| 2026-04-28 09:44 | 57.56605 | 113.48695 | 12530 ft | 162 kts | 243° |
| 2026-04-28 09:44 | 57.55935 | 113.47018 | 12728 ft | 161 kts | 243° |
| 2026-04-28 09:44 | 57.55270 | 113.45358 | 12899 ft | 162 kts | 243° |
| 2026-04-28 09:45 | 57.54597 | 113.43688 | 13065 ft | 163 kts | 242° |
| 2026-04-28 09:45 | 57.53899 | 113.42014 | 13245 ft | 163 kts | 242° |
| 2026-04-28 09:45 | 57.53213 | 113.40359 | 13403 ft | 164 kts | 243° |
| 2026-04-28 09:45 | 57.52511 | 113.38666 | 13564 ft | 165 kts | 243° |
| 2026-04-28 09:46 | 57.51814 | 113.36990 | 13722 ft | 165 kts | 243° |
| 2026-04-28 09:46 | 57.51118 | 113.35318 | 13884 ft | 165 kts | 243° |
| 2026-04-28 09:46 | 57.50406 | 113.33609 | 14050 ft | 165 kts | 242° |
| 2026-04-28 09:46 | 57.49709 | 113.31942 | 14215 ft | 165 kts | 242° |
| 2026-04-28 09:47 | 57.49003 | 113.30250 | 14379 ft | 165 kts | 242° |
| 2026-04-28 09:47 | 57.48302 | 113.28578 | 14534 ft | 166 kts | 241° |
| 2026-04-28 09:47 | 57.47589 | 113.26874 | 14664 ft | 167 kts | 241° |
| 2026-04-28 09:47 | 57.46877 | 113.25175 | 14801 ft | 168 kts | 241° |
| 2026-04-28 09:48 | 57.46139 | 113.23462 | 14941 ft | 170 kts | 240° |
| 2026-04-28 09:48 | 57.45399 | 113.21760 | 15075 ft | 170 kts | 240° |
| 2026-04-28 09:48 | 57.44659 | 113.20055 | 15216 ft | 171 kts | 240° |
| 2026-04-28 09:48 | 57.43910 | 113.18333 | 15346 ft | 172 kts | 240° |
| 2026-04-28 09:49 | 57.43160 | 113.16608 | 15481 ft | 172 kts | 240° |
| 2026-04-28 09:49 | 57.42430 | 113.14874 | 15610 ft | 172 kts | 241° |
| 2026-04-28 09:49 | 57.41691 | 113.13116 | 15745 ft | 172 kts | 240° |
| 2026-04-28 09:49 | 57.40953 | 113.11361 | 15857 ft | 174 kts | 240° |
| 2026-04-28 09:50 | 57.40209 | 113.09592 | 15970 ft | 175 kts | 240° |
| 2026-04-28 09:50 | 57.39471 | 113.07837 | 16088 ft | 175 kts | 240° |
| 2026-04-28 09:50 | 57.38720 | 113.06054 | 16202 ft | 176 kts | 240° |
| 2026-04-28 09:50 | 57.37962 | 113.04254 | 16316 ft | 176 kts | 240° |
| 2026-04-28 09:51 | 57.37214 | 113.02483 | 16431 ft | 177 kts | 240° |
| 2026-04-28 09:51 | 57.36450 | 113.00671 | 16545 ft | 177 kts | 240° |
| 2026-04-28 09:51 | 57.35699 | 112.98897 | 16648 ft | 178 kts | 239° |
| 2026-04-28 09:51 | 57.34936 | 112.97092 | 16759 ft | 178 kts | 239° |
| 2026-04-28 09:52 | 57.34169 | 112.95281 | 16868 ft | 178 kts | 240° |
| 2026-04-28 09:52 | 57.33413 | 112.93499 | 16967 ft | 179 kts | 239° |
| 2026-04-28 09:52 | 57.32641 | 112.91680 | 17065 ft | 179 kts | 239° |
| 2026-04-28 09:52 | 57.31870 | 112.89864 | 17170 ft | 179 kts | 239° |
| 2026-04-28 09:53 | 57.31103 | 112.88064 | 17271 ft | 180 kts | 239° |
| 2026-04-28 09:53 | 57.30336 | 112.86262 | 17376 ft | 180 kts | 239° |
| 2026-04-28 09:53 | 57.29556 | 112.84434 | 17477 ft | 180 kts | 239° |
| 2026-04-28 09:53 | 57.28791 | 112.82637 | 17571 ft | 180 kts | 239° |
| 2026-04-28 09:54 | 57.28021 | 112.80833 | 17661 ft | 180 kts | 239° |
| 2026-04-28 09:54 | 57.27243 | 112.79009 | 17736 ft | 182 kts | 239° |
| 2026-04-28 09:54 | 57.26454 | 112.77160 | 17814 ft | 182 kts | 239° |
| 2026-04-28 09:54 | 57.25671 | 112.75326 | 17892 ft | 183 kts | 239° |
| 2026-04-28 09:55 | 57.24886 | 112.73486 | 17956 ft | 185 kts | 238° |
| 2026-04-28 09:55 | 57.24081 | 112.71599 | 17991 ft | 188 kts | 238° |
| 2026-04-28 09:55 | 57.23272 | 112.69701 | 17955 ft | 193 kts | 238° |
| 2026-04-28 09:55 | 57.22430 | 112.67728 | 17915 ft | 198 kts | 238° |
| 2026-04-28 09:56 | 57.21568 | 112.65717 | 17930 ft | 199 kts | 238° |
| 2026-04-28 09:56 | 57.20717 | 112.63732 | 17943 ft | 200 kts | 238° |
| 2026-04-28 09:56 | 57.19854 | 112.61720 | 17948 ft | 201 kts | 238° |
| 2026-04-28 09:56 | 57.18979 | 112.59678 | 17934 ft | 203 kts | 238° |
| 2026-04-28 09:57 | 57.18110 | 112.57657 | 17957 ft | 203 kts | 238° |
| 2026-04-28 09:57 | 57.17228 | 112.55608 | 17946 ft | 205 kts | 238° |
| 2026-04-28 09:57 | 57.16343 | 112.53552 | 17950 ft | 206 kts | 238° |
| 2026-04-28 09:57 | 57.15444 | 112.51465 | 17933 ft | 207 kts | 238° |
| 2026-04-28 09:58 | 57.14553 | 112.49397 | 17958 ft | 207 kts | 238° |
| 2026-04-28 09:58 | 57.13663 | 112.47337 | 17959 ft | 207 kts | 238° |
| 2026-04-28 09:58 | 57.12763 | 112.45253 | 17944 ft | 209 kts | 238° |
| 2026-04-28 09:58 | 57.11861 | 112.43167 | 17955 ft | 208 kts | 238° |
| 2026-04-28 09:59 | 57.10957 | 112.41077 | 17943 ft | 209 kts | 238° |
| 2026-04-28 09:59 | 57.10061 | 112.39007 | 17951 ft | 209 kts | 238° |
| 2026-04-28 09:59 | 57.09160 | 112.36932 | 17960 ft | 209 kts | 238° |
| 2026-04-28 09:59 | 57.08244 | 112.34823 | 17941 ft | 210 kts | 237° |
| 2026-04-28 10:00 | 57.07338 | 112.32737 | 17963 ft | 209 kts | 237° |
| 2026-04-28 10:00 | 57.06435 | 112.30665 | 17951 ft | 210 kts | 237° |
| 2026-04-28 10:00 | 57.05517 | 112.28556 | 17947 ft | 211 kts | 237° |
| 2026-04-28 10:00 | 57.04611 | 112.26480 | 17940 ft | 211 kts | 237° |
| 2026-04-28 10:01 | 57.03684 | 112.24355 | 17932 ft | 211 kts | 237° |
| 2026-04-28 10:01 | 57.02771 | 112.22269 | 17955 ft | 210 kts | 237° |
| 2026-04-28 10:01 | 57.01862 | 112.20193 | 17950 ft | 211 kts | 237° |
| 2026-04-28 10:01 | 57.00943 | 112.18096 | 17933 ft | 211 kts | 237° |
| 2026-04-28 10:02 | 57.00022 | 112.15999 | 17952 ft | 210 kts | 237° |
| 2026-04-28 10:02 | 56.99108 | 112.13914 | 17935 ft | 211 kts | 237° |
| 2026-04-28 10:02 | 56.98188 | 112.11816 | 17951 ft | 211 kts | 237° |
| 2026-04-28 10:02 | 56.97282 | 112.09753 | 17963 ft | 210 kts | 237° |
| 2026-04-28 10:03 | 56.96361 | 112.07658 | 17959 ft | 211 kts | 237° |
| 2026-04-28 10:03 | 56.95438 | 112.05563 | 17978 ft | 210 kts | 237° |
| 2026-04-28 10:03 | 56.94523 | 112.03487 | 17960 ft | 211 kts | 237° |
| 2026-04-28 10:03 | 56.93608 | 112.01415 | 17970 ft | 211 kts | 237° |
| 2026-04-28 10:04 | 56.92691 | 111.99339 | 17983 ft | 210 kts | 237° |
| 2026-04-28 10:04 | 56.91768 | 111.97246 | 17956 ft | 212 kts | 237° |
| 2026-04-28 10:04 | 56.90848 | 111.95160 | 17971 ft | 212 kts | 237° |
| 2026-04-28 10:04 | 56.89928 | 111.93076 | 17959 ft | 212 kts | 237° |
| 2026-04-28 10:05 | 56.89003 | 111.90983 | 17960 ft | 212 kts | 236° |
| 2026-04-28 10:05 | 56.88083 | 111.88905 | 17977 ft | 211 kts | 237° |
| 2026-04-28 10:05 | 56.87149 | 111.86797 | 17959 ft | 211 kts | 237° |
| 2026-04-28 10:05 | 56.86231 | 111.84726 | 17967 ft | 211 kts | 237° |
| 2026-04-28 10:06 | 56.85309 | 111.82649 | 17944 ft | 211 kts | 237° |
| 2026-04-28 10:06 | 56.84395 | 111.80592 | 17958 ft | 210 kts | 237° |
| 2026-04-28 10:06 | 56.83479 | 111.78532 | 17958 ft | 210 kts | 237° |
| 2026-04-28 10:06 | 56.82554 | 111.76454 | 17949 ft | 210 kts | 237° |
| 2026-04-28 10:07 | 56.81638 | 111.74399 | 17970 ft | 209 kts | 237° |
| 2026-04-28 10:07 | 56.80712 | 111.72323 | 17960 ft | 210 kts | 237° |
| 2026-04-28 10:07 | 56.79800 | 111.70282 | 17975 ft | 209 kts | 236° |
| 2026-04-28 10:07 | 56.78877 | 111.68216 | 17960 ft | 210 kts | 236° |
| 2026-04-28 10:08 | 56.77958 | 111.66161 | 17975 ft | 209 kts | 237° |
| 2026-04-28 10:08 | 56.77042 | 111.64117 | 17972 ft | 210 kts | 237° |
| 2026-04-28 10:08 | 56.76126 | 111.62073 | 17948 ft | 210 kts | 237° |
| 2026-04-28 10:08 | 56.75199 | 111.60005 | 17970 ft | 209 kts | 237° |
| 2026-04-28 10:09 | 56.74280 | 111.57960 | 17968 ft | 210 kts | 237° |
| 2026-04-28 10:09 | 56.73360 | 111.55911 | 17974 ft | 210 kts | 237° |
| 2026-04-28 10:09 | 56.72442 | 111.53867 | 17961 ft | 210 kts | 237° |
| 2026-04-28 10:09 | 56.71512 | 111.51801 | 17950 ft | 211 kts | 237° |
| 2026-04-28 10:10 | 56.70589 | 111.49751 | 17968 ft | 210 kts | 237° |
| 2026-04-28 10:10 | 56.69656 | 111.47678 | 17956 ft | 210 kts | 237° |
| 2026-04-28 10:10 | 56.68733 | 111.45632 | 17970 ft | 209 kts | 237° |
| 2026-04-28 10:10 | 56.67810 | 111.43591 | 17957 ft | 210 kts | 237° |
| 2026-04-28 10:11 | 56.66885 | 111.41545 | 17960 ft | 209 kts | 237° |
| 2026-04-28 10:11 | 56.65966 | 111.39515 | 17973 ft | 209 kts | 237° |
| 2026-04-28 10:11 | 56.65049 | 111.37492 | 17962 ft | 210 kts | 237° |
| 2026-04-28 10:11 | 56.64120 | 111.35441 | 17972 ft | 209 kts | 237° |
| 2026-04-28 10:12 | 56.63205 | 111.33425 | 17962 ft | 210 kts | 236° |
| 2026-04-28 10:12 | 56.62273 | 111.31374 | 17955 ft | 210 kts | 236° |
| 2026-04-28 10:12 | 56.61327 | 111.29346 | 17985 ft | 209 kts | 235° |
| 2026-04-28 10:12 | 56.60389 | 111.27356 | 17979 ft | 210 kts | 235° |
| 2026-04-28 10:13 | 56.59439 | 111.25341 | 17969 ft | 211 kts | 235° |
| 2026-04-28 10:13 | 56.58490 | 111.23332 | 17986 ft | 210 kts | 235° |
| 2026-04-28 10:13 | 56.57539 | 111.21319 | 17967 ft | 211 kts | 235° |
| 2026-04-28 10:13 | 56.56581 | 111.19289 | 17968 ft | 211 kts | 235° |
| 2026-04-28 10:14 | 56.55637 | 111.17292 | 17981 ft | 211 kts | 235° |
| 2026-04-28 10:14 | 56.54674 | 111.15256 | 17968 ft | 212 kts | 235° |
| 2026-04-28 10:14 | 56.53722 | 111.13246 | 17978 ft | 211 kts | 235° |
| 2026-04-28 10:14 | 56.52764 | 111.11225 | 17977 ft | 211 kts | 235° |
| 2026-04-28 10:15 | 56.51810 | 111.09215 | 17983 ft | 211 kts | 235° |
| 2026-04-28 10:15 | 56.50857 | 111.07210 | 17961 ft | 212 kts | 235° |
| 2026-04-28 10:15 | 56.49880 | 111.05206 | 17986 ft | 211 kts | 234° |
| 2026-04-28 10:15 | 56.48902 | 111.03225 | 17977 ft | 211 kts | 234° |
| 2026-04-28 10:16 | 56.47934 | 111.01262 | 17975 ft | 211 kts | 234° |
| 2026-04-28 10:16 | 56.46953 | 110.99278 | 17978 ft | 211 kts | 234° |
| 2026-04-28 10:16 | 56.45977 | 110.97303 | 17971 ft | 212 kts | 233° |
| 2026-04-28 10:16 | 56.44994 | 110.95314 | 17981 ft | 211 kts | 234° |
| 2026-04-28 10:17 | 56.44023 | 110.93354 | 17967 ft | 212 kts | 234° |
| 2026-04-28 10:17 | 56.43040 | 110.91370 | 17996 ft | 210 kts | 234° |
| 2026-04-28 10:17 | 56.42065 | 110.89405 | 17990 ft | 211 kts | 234° |
| 2026-04-28 10:17 | 56.41087 | 110.87436 | 17979 ft | 212 kts | 234° |
| 2026-04-28 10:18 | 56.40113 | 110.85477 | 17984 ft | 211 kts | 234° |
| 2026-04-28 10:18 | 56.39137 | 110.83514 | 17959 ft | 212 kts | 234° |
| 2026-04-28 10:18 | 56.38146 | 110.81521 | 17972 ft | 211 kts | 234° |
| 2026-04-28 10:18 | 56.37166 | 110.79555 | 17983 ft | 211 kts | 234° |
| 2026-04-28 10:19 | 56.36185 | 110.77588 | 17985 ft | 211 kts | 234° |
| 2026-04-28 10:19 | 56.35213 | 110.75640 | 18003 ft | 210 kts | 234° |
| 2026-04-28 10:19 | 56.34230 | 110.73675 | 18010 ft | 210 kts | 234° |
| 2026-04-28 10:19 | 56.33254 | 110.71722 | 17988 ft | 211 kts | 234° |
| 2026-04-28 10:20 | 56.32280 | 110.69774 | 17974 ft | 212 kts | 234° |
| 2026-04-28 10:20 | 56.31289 | 110.67794 | 17966 ft | 212 kts | 234° |
| 2026-04-28 10:20 | 56.30313 | 110.65848 | 17987 ft | 211 kts | 234° |
| 2026-04-28 10:20 | 56.29337 | 110.63900 | 17984 ft | 211 kts | 234° |
| 2026-04-28 10:21 | 56.28348 | 110.61932 | 17988 ft | 211 kts | 234° |
| 2026-04-28 10:21 | 56.27365 | 110.59975 | 17990 ft | 211 kts | 234° |
| 2026-04-28 10:21 | 56.26387 | 110.58028 | 17982 ft | 211 kts | 234° |
| 2026-04-28 10:21 | 56.25410 | 110.56087 | 18002 ft | 211 kts | 234° |
| 2026-04-28 10:22 | 56.24421 | 110.54122 | 18001 ft | 211 kts | 234° |
| 2026-04-28 10:22 | 56.23445 | 110.52186 | 17973 ft | 213 kts | 234° |
| 2026-04-28 10:22 | 56.22449 | 110.50208 | 17973 ft | 212 kts | 234° |
| 2026-04-28 10:22 | 56.21457 | 110.48241 | 17992 ft | 211 kts | 234° |
| 2026-04-28 10:23 | 56.20472 | 110.46291 | 17988 ft | 211 kts | 234° |
| 2026-04-28 10:23 | 56.19485 | 110.44339 | 18003 ft | 211 kts | 233° |
| 2026-04-28 10:23 | 56.18509 | 110.42413 | 18002 ft | 211 kts | 234° |
| 2026-04-28 10:23 | 56.17522 | 110.40464 | 17988 ft | 211 kts | 234° |
| 2026-04-28 10:24 | 56.16547 | 110.38541 | 17996 ft | 210 kts | 233° |
| 2026-04-28 10:24 | 56.15557 | 110.36592 | 17983 ft | 211 kts | 233° |
| 2026-04-28 10:24 | 56.14565 | 110.34639 | 17982 ft | 211 kts | 233° |
| 2026-04-28 10:24 | 56.13584 | 110.32709 | 18010 ft | 210 kts | 233° |
| 2026-04-28 10:25 | 56.12592 | 110.30761 | 17999 ft | 211 kts | 233° |
| 2026-04-28 10:25 | 56.11605 | 110.28822 | 18010 ft | 211 kts | 233° |
| 2026-04-28 10:25 | 56.10625 | 110.26899 | 18003 ft | 212 kts | 233° |
| 2026-04-28 10:25 | 56.09633 | 110.24952 | 17986 ft | 212 kts | 233° |
| 2026-04-28 10:26 | 56.08644 | 110.23014 | 17995 ft | 212 kts | 233° |
| 2026-04-28 10:26 | 56.07647 | 110.21060 | 17988 ft | 212 kts | 233° |
| 2026-04-28 10:26 | 56.06657 | 110.19122 | 18018 ft | 212 kts | 233° |
| 2026-04-28 10:26 | 56.05670 | 110.17191 | 18003 ft | 212 kts | 233° |
| 2026-04-28 10:27 | 56.04663 | 110.15222 | 18000 ft | 212 kts | 233° |
| 2026-04-28 10:27 | 56.03676 | 110.13295 | 18015 ft | 212 kts | 233° |
| 2026-04-28 10:27 | 56.02684 | 110.11361 | 18000 ft | 212 kts | 233° |
| 2026-04-28 10:27 | 56.01693 | 110.09428 | 18010 ft | 211 kts | 232° |
| 2026-04-28 10:28 | 56.00702 | 110.07499 | 18003 ft | 211 kts | 233° |
| 2026-04-28 10:28 | 55.99707 | 110.05564 | 18005 ft | 211 kts | 233° |
| 2026-04-28 10:28 | 55.98715 | 110.03637 | 18014 ft | 210 kts | 232° |
| 2026-04-28 10:29 | 55.96743 | 109.99812 | 18026 ft | 210 kts | 233° |
| 2026-04-28 10:29 | 55.95755 | 109.97894 | 18020 ft | 211 kts | 233° |
| 2026-04-28 10:29 | 55.94766 | 109.95977 | 18006 ft | 212 kts | 233° |
| 2026-04-28 10:29 | 55.93762 | 109.94033 | 18017 ft | 211 kts | 233° |
| 2026-04-28 10:30 | 55.92784 | 109.92140 | 18028 ft | 211 kts | 233° |
| 2026-04-28 10:30 | 55.91775 | 109.90190 | 18011 ft | 212 kts | 233° |
| 2026-04-28 10:30 | 55.90791 | 109.88287 | 18026 ft | 212 kts | 233° |
| 2026-04-28 10:30 | 55.89791 | 109.86357 | 18012 ft | 212 kts | 233° |
| 2026-04-28 10:31 | 55.88788 | 109.84422 | 18016 ft | 211 kts | 233° |
| 2026-04-28 10:31 | 55.87795 | 109.82508 | 18033 ft | 211 kts | 233° |
| 2026-04-28 10:31 | 55.86808 | 109.80609 | 17997 ft | 212 kts | 232° |
| 2026-04-28 10:31 | 55.85811 | 109.78690 | 18015 ft | 210 kts | 233° |
| 2026-04-28 10:32 | 55.84809 | 109.76766 | 18014 ft | 210 kts | 233° |
| 2026-04-28 10:32 | 55.83823 | 109.74876 | 18053 ft | 208 kts | 233° |
| 2026-04-28 10:32 | 55.82841 | 109.72993 | 18054 ft | 208 kts | 233° |
| 2026-04-28 10:32 | 55.81861 | 109.71107 | 18038 ft | 209 kts | 233° |
| 2026-04-28 10:33 | 55.80879 | 109.69221 | 18053 ft | 208 kts | 233° |
| 2026-04-28 10:33 | 55.79903 | 109.67348 | 18038 ft | 209 kts | 233° |
| 2026-04-28 10:33 | 55.78920 | 109.65461 | 18049 ft | 208 kts | 233° |
| 2026-04-28 10:33 | 55.77936 | 109.63573 | 18039 ft | 209 kts | 233° |
| 2026-04-28 10:34 | 55.76958 | 109.61700 | 18055 ft | 208 kts | 233° |
| 2026-04-28 10:34 | 55.75964 | 109.59802 | 18056 ft | 208 kts | 233° |
| 2026-04-28 10:34 | 55.74988 | 109.57939 | 18047 ft | 208 kts | 233° |
| 2026-04-28 10:34 | 55.73992 | 109.56085 | 18076 ft | 208 kts | 231° |
| 2026-04-28 10:35 | 55.72958 | 109.54301 | 18068 ft | 209 kts | 230° |
| 2026-04-28 10:35 | 55.71912 | 109.52509 | 18036 ft | 210 kts | 230° |
| 2026-04-28 10:35 | 55.70852 | 109.50696 | 18054 ft | 209 kts | 230° |
| 2026-04-28 10:35 | 55.69817 | 109.48927 | 18052 ft | 210 kts | 230° |
| 2026-04-28 10:36 | 55.68761 | 109.47123 | 18068 ft | 209 kts | 230° |
| 2026-04-28 10:36 | 55.67713 | 109.45338 | 18048 ft | 210 kts | 230° |
| 2026-04-28 10:36 | 55.66668 | 109.43554 | 18059 ft | 209 kts | 230° |
| 2026-04-28 10:36 | 55.65618 | 109.41765 | 18047 ft | 210 kts | 230° |
| 2026-04-28 10:37 | 55.64571 | 109.39983 | 18059 ft | 209 kts | 230° |
| 2026-04-28 10:37 | 55.63528 | 109.38211 | 18060 ft | 209 kts | 230° |
| 2026-04-28 10:37 | 55.62482 | 109.36432 | 18044 ft | 210 kts | 230° |
| 2026-04-28 10:37 | 55.61423 | 109.34634 | 18058 ft | 209 kts | 230° |
| 2026-04-28 10:38 | 55.60378 | 109.32861 | 18050 ft | 210 kts | 230° |
| 2026-04-28 10:38 | 55.59327 | 109.31079 | 18064 ft | 210 kts | 230° |
| 2026-04-28 10:38 | 55.58282 | 109.29308 | 18065 ft | 210 kts | 230° |
| 2026-04-28 10:38 | 55.57224 | 109.27515 | 18060 ft | 211 kts | 230° |
| 2026-04-28 10:39 | 55.56166 | 109.25725 | 18059 ft | 211 kts | 230° |
| 2026-04-28 10:39 | 55.55111 | 109.23938 | 18049 ft | 212 kts | 230° |
| 2026-04-28 10:39 | 55.54046 | 109.22135 | 18067 ft | 211 kts | 230° |
| 2026-04-28 10:39 | 55.53000 | 109.20367 | 18051 ft | 212 kts | 230° |
| 2026-04-28 10:40 | 55.51938 | 109.18573 | 18059 ft | 212 kts | 229° |
| 2026-04-28 10:40 | 55.50867 | 109.16766 | 18052 ft | 212 kts | 229° |
| 2026-04-28 10:40 | 55.49813 | 109.14987 | 18044 ft | 212 kts | 229° |
| 2026-04-28 10:40 | 55.48735 | 109.13169 | 18055 ft | 212 kts | 229° |
| 2026-04-28 10:41 | 55.47677 | 109.11388 | 18033 ft | 213 kts | 230° |
| 2026-04-28 10:41 | 55.46608 | 109.09587 | 18032 ft | 213 kts | 230° |
| 2026-04-28 10:41 | 55.45547 | 109.07802 | 18041 ft | 212 kts | 229° |
| 2026-04-28 10:41 | 55.44476 | 109.06002 | 18025 ft | 213 kts | 230° |
| 2026-04-28 10:42 | 55.43402 | 109.04198 | 18044 ft | 212 kts | 229° |
| 2026-04-28 10:42 | 55.42337 | 109.02411 | 18022 ft | 213 kts | 230° |
| 2026-04-28 10:42 | 55.41274 | 109.00626 | 18039 ft | 212 kts | 230° |
| 2026-04-28 10:42 | 55.40201 | 108.98828 | 18024 ft | 213 kts | 229° |
| 2026-04-28 10:43 | 55.39131 | 108.97034 | 18035 ft | 213 kts | 229° |
| 2026-04-28 10:43 | 55.38064 | 108.95250 | 18015 ft | 213 kts | 229° |
| 2026-04-28 10:43 | 55.36983 | 108.93441 | 18006 ft | 213 kts | 229° |
| 2026-04-28 10:43 | 55.35928 | 108.91679 | 18028 ft | 211 kts | 229° |
| 2026-04-28 10:44 | 55.34861 | 108.89899 | 18037 ft | 211 kts | 229° |
| 2026-04-28 10:44 | 55.33805 | 108.88139 | 18051 ft | 210 kts | 229° |
| 2026-04-28 10:44 | 55.32748 | 108.86381 | 18046 ft | 210 kts | 229° |
| 2026-04-28 10:44 | 55.31688 | 108.84617 | 18054 ft | 210 kts | 229° |
| 2026-04-28 10:45 | 55.30629 | 108.82860 | 18048 ft | 210 kts | 229° |
| 2026-04-28 10:45 | 55.29567 | 108.81095 | 18060 ft | 210 kts | 230° |
| 2026-04-28 10:45 | 55.28508 | 108.79340 | 18041 ft | 210 kts | 230° |
| 2026-04-28 10:45 | 55.27455 | 108.77595 | 18067 ft | 209 kts | 230° |
| 2026-04-28 10:46 | 55.26393 | 108.75838 | 18077 ft | 209 kts | 229° |
| 2026-04-28 10:46 | 55.25353 | 108.74120 | 18094 ft | 208 kts | 229° |
| 2026-04-28 10:46 | 55.24295 | 108.72373 | 18090 ft | 209 kts | 229° |
| 2026-04-28 10:46 | 55.23239 | 108.70630 | 18073 ft | 210 kts | 229° |
| 2026-04-28 10:47 | 55.22173 | 108.68869 | 18058 ft | 211 kts | 229° |
| 2026-04-28 10:47 | 55.21096 | 108.67089 | 18048 ft | 212 kts | 229° |
| 2026-04-28 10:47 | 55.20035 | 108.65340 | 18062 ft | 211 kts | 229° |
| 2026-04-28 10:47 | 55.18967 | 108.63580 | 18042 ft | 212 kts | 229° |
| 2026-04-28 10:48 | 55.17887 | 108.61798 | 18030 ft | 213 kts | 229° |
| 2026-04-28 10:48 | 55.16813 | 108.60031 | 18054 ft | 212 kts | 229° |
| 2026-04-28 10:48 | 55.15744 | 108.58270 | 18039 ft | 213 kts | 229° |
| 2026-04-28 10:48 | 55.14674 | 108.56509 | 18050 ft | 212 kts | 229° |
| 2026-04-28 10:49 | 55.13593 | 108.54733 | 18042 ft | 213 kts | 229° |
| 2026-04-28 10:49 | 55.12519 | 108.52969 | 18035 ft | 213 kts | 229° |
| 2026-04-28 10:49 | 55.11442 | 108.51202 | 18032 ft | 213 kts | 229° |
| 2026-04-28 10:49 | 55.10379 | 108.49459 | 18019 ft | 213 kts | 229° |
| 2026-04-28 10:50 | 55.09292 | 108.47678 | 18032 ft | 212 kts | 229° |
| 2026-04-28 10:50 | 55.08220 | 108.45925 | 18019 ft | 212 kts | 229° |
| 2026-04-28 10:50 | 55.07142 | 108.44163 | 18041 ft | 211 kts | 229° |
| 2026-04-28 10:50 | 55.06083 | 108.42432 | 18041 ft | 211 kts | 229° |
| 2026-04-28 10:51 | 55.04999 | 108.40664 | 18023 ft | 212 kts | 229° |
| 2026-04-28 10:51 | 55.03939 | 108.38937 | 18043 ft | 211 kts | 229° |
| 2026-04-28 10:51 | 55.02860 | 108.37179 | 18026 ft | 212 kts | 229° |
| 2026-04-28 10:51 | 55.01801 | 108.35454 | 18026 ft | 211 kts | 229° |
| 2026-04-28 10:52 | 55.00727 | 108.33708 | 18027 ft | 211 kts | 228° |
| 2026-04-28 10:52 | 54.99650 | 108.31956 | 18023 ft | 212 kts | 228° |
| 2026-04-28 10:52 | 54.98568 | 108.30198 | 18044 ft | 212 kts | 228° |
| 2026-04-28 10:52 | 54.97493 | 108.28451 | 18019 ft | 213 kts | 228° |
| 2026-04-28 10:53 | 54.96412 | 108.26696 | 18034 ft | 213 kts | 228° |
| 2026-04-28 10:53 | 54.95330 | 108.24940 | 18022 ft | 213 kts | 228° |
| 2026-04-28 10:53 | 54.94249 | 108.23188 | 18015 ft | 213 kts | 228° |
| 2026-04-28 10:53 | 54.93171 | 108.21446 | 18015 ft | 212 kts | 228° |
| 2026-04-28 10:54 | 54.92094 | 108.19703 | 17986 ft | 212 kts | 228° |
| 2026-04-28 10:54 | 54.91031 | 108.17986 | 18035 ft | 211 kts | 228° |
| 2026-04-28 10:54 | 54.89949 | 108.16238 | 18030 ft | 211 kts | 228° |
| 2026-04-28 10:54 | 54.88880 | 108.14513 | 18020 ft | 212 kts | 228° |
| 2026-04-28 10:55 | 54.87809 | 108.12785 | 18018 ft | 211 kts | 228° |
| 2026-04-28 10:55 | 54.86725 | 108.11040 | 18017 ft | 211 kts | 228° |
| 2026-04-28 10:55 | 54.85648 | 108.09305 | 18008 ft | 212 kts | 228° |
| 2026-04-28 10:55 | 54.84578 | 108.07581 | 18031 ft | 211 kts | 228° |
| 2026-04-28 10:56 | 54.83505 | 108.05857 | 18032 ft | 212 kts | 228° |
| 2026-04-28 10:56 | 54.82411 | 108.04098 | 18022 ft | 212 kts | 228° |
| 2026-04-28 10:56 | 54.81331 | 108.02363 | 18010 ft | 213 kts | 228° |
| 2026-04-28 10:56 | 54.80256 | 108.00636 | 18010 ft | 212 kts | 228° |
| 2026-04-28 10:57 | 54.79174 | 107.98902 | 18001 ft | 212 kts | 228° |
| 2026-04-28 10:57 | 54.78088 | 107.97162 | 18012 ft | 212 kts | 228° |
| 2026-04-28 10:57 | 54.77007 | 107.95430 | 18022 ft | 211 kts | 228° |
| 2026-04-28 10:57 | 54.75925 | 107.93701 | 17993 ft | 213 kts | 228° |
| 2026-04-28 10:58 | 54.74847 | 107.91976 | 17987 ft | 213 kts | 228° |
| 2026-04-28 10:58 | 54.73765 | 107.90247 | 17995 ft | 212 kts | 228° |
| 2026-04-28 10:58 | 54.72683 | 107.88521 | 18007 ft | 211 kts | 228° |
| 2026-04-28 10:58 | 54.71611 | 107.86811 | 18013 ft | 212 kts | 228° |
| 2026-04-28 10:59 | 54.70529 | 107.85086 | 17983 ft | 213 kts | 228° |
| 2026-04-28 10:59 | 54.69429 | 107.83334 | 17997 ft | 212 kts | 228° |
| 2026-04-28 10:59 | 54.68361 | 107.81634 | 18009 ft | 211 kts | 229° |
| 2026-04-28 10:59 | 54.67271 | 107.79900 | 18012 ft | 212 kts | 228° |
| 2026-04-28 11:00 | 54.66193 | 107.78187 | 17993 ft | 212 kts | 228° |
| 2026-04-28 11:00 | 54.65113 | 107.76471 | 17990 ft | 212 kts | 228° |
| 2026-04-28 11:00 | 54.64019 | 107.74734 | 18023 ft | 211 kts | 228° |
| 2026-04-28 11:00 | 54.62941 | 107.73025 | 18013 ft | 212 kts | 228° |
| 2026-04-28 11:01 | 54.61864 | 107.71317 | 18012 ft | 212 kts | 228° |
| 2026-04-28 11:01 | 54.60780 | 107.69600 | 18001 ft | 213 kts | 228° |
| 2026-04-28 11:01 | 54.59683 | 107.67863 | 18009 ft | 213 kts | 228° |
| 2026-04-28 11:01 | 54.58593 | 107.66139 | 18007 ft | 213 kts | 228° |
| 2026-04-28 11:02 | 54.57510 | 107.64426 | 17995 ft | 213 kts | 228° |
| 2026-04-28 11:02 | 54.56422 | 107.62708 | 18020 ft | 212 kts | 228° |
| 2026-04-28 11:02 | 54.55336 | 107.60995 | 18012 ft | 213 kts | 228° |
| 2026-04-28 11:02 | 54.54247 | 107.59276 | 18015 ft | 213 kts | 228° |
| 2026-04-28 11:03 | 54.53159 | 107.57561 | 17994 ft | 214 kts | 228° |
| 2026-04-28 11:03 | 54.52062 | 107.55832 | 17975 ft | 214 kts | 228° |
| 2026-04-28 11:03 | 54.50971 | 107.54115 | 18049 ft | 210 kts | 228° |
| 2026-04-28 11:03 | 54.49903 | 107.52439 | 18057 ft | 211 kts | 228° |
| 2026-04-28 11:04 | 54.48808 | 107.50718 | 17972 ft | 215 kts | 228° |
| 2026-04-28 11:04 | 54.47710 | 107.48998 | 18008 ft | 213 kts | 228° |
| 2026-04-28 11:04 | 54.46615 | 107.47287 | 18063 ft | 211 kts | 228° |
| 2026-04-28 11:04 | 54.45528 | 107.45586 | 17975 ft | 215 kts | 228° |
| 2026-04-28 11:05 | 54.44416 | 107.43842 | 17969 ft | 215 kts | 228° |
| 2026-04-28 11:05 | 54.43330 | 107.42146 | 18055 ft | 211 kts | 228° |
| 2026-04-28 11:05 | 54.42239 | 107.40446 | 18024 ft | 213 kts | 228° |
| 2026-04-28 11:05 | 54.41129 | 107.38708 | 17952 ft | 216 kts | 228° |
| 2026-04-28 11:06 | 54.40040 | 107.37014 | 18030 ft | 212 kts | 228° |
| 2026-04-28 11:06 | 54.38954 | 107.35326 | 18047 ft | 211 kts | 228° |
| 2026-04-28 11:06 | 54.37860 | 107.33621 | 18038 ft | 212 kts | 227° |
| 2026-04-28 11:06 | 54.36779 | 107.31936 | 18022 ft | 213 kts | 227° |
| 2026-04-28 11:07 | 54.35681 | 107.30225 | 18029 ft | 213 kts | 227° |
| 2026-04-28 11:07 | 54.34581 | 107.28511 | 18014 ft | 215 kts | 227° |
| 2026-04-28 11:07 | 54.33472 | 107.26788 | 18026 ft | 215 kts | 227° |
| 2026-04-28 11:07 | 54.32367 | 107.25075 | 18021 ft | 215 kts | 227° |
| 2026-04-28 11:08 | 54.31259 | 107.23358 | 18020 ft | 215 kts | 227° |
| 2026-04-28 11:08 | 54.30152 | 107.21648 | 18038 ft | 215 kts | 227° |
| 2026-04-28 11:08 | 54.29040 | 107.19930 | 18013 ft | 216 kts | 227° |
| 2026-04-28 11:08 | 54.27931 | 107.18217 | 18024 ft | 215 kts | 227° |
| 2026-04-28 11:09 | 54.26826 | 107.16515 | 18030 ft | 215 kts | 227° |
| 2026-04-28 11:09 | 54.25708 | 107.14795 | 18023 ft | 216 kts | 227° |
| 2026-04-28 11:09 | 54.24594 | 107.13081 | 18040 ft | 215 kts | 227° |
| 2026-04-28 11:09 | 54.23490 | 107.11382 | 18019 ft | 216 kts | 227° |
| 2026-04-28 11:10 | 54.22370 | 107.09656 | 18025 ft | 216 kts | 227° |
| 2026-04-28 11:10 | 54.21259 | 107.07947 | 18032 ft | 216 kts | 227° |
| 2026-04-28 11:10 | 54.20134 | 107.06215 | 17992 ft | 217 kts | 227° |
| 2026-04-28 11:10 | 54.19014 | 107.04495 | 18008 ft | 216 kts | 227° |
| 2026-04-28 11:11 | 54.17898 | 107.02783 | 18015 ft | 216 kts | 227° |
| 2026-04-28 11:11 | 54.16781 | 107.01071 | 18014 ft | 217 kts | 227° |
| 2026-04-28 11:11 | 54.15662 | 106.99358 | 18000 ft | 217 kts | 227° |
| 2026-04-28 11:11 | 54.14535 | 106.97636 | 18028 ft | 216 kts | 227° |
| 2026-04-28 11:12 | 54.13425 | 106.95942 | 18021 ft | 216 kts | 227° |
| 2026-04-28 11:12 | 54.12306 | 106.94235 | 18025 ft | 215 kts | 227° |
| 2026-04-28 11:12 | 54.11201 | 106.92548 | 18022 ft | 215 kts | 227° |
| 2026-04-28 11:12 | 54.10081 | 106.90836 | 18009 ft | 216 kts | 227° |
| 2026-04-28 11:13 | 54.08964 | 106.89130 | 18028 ft | 215 kts | 227° |
| 2026-04-28 11:13 | 54.07859 | 106.87447 | 18019 ft | 216 kts | 227° |
| 2026-04-28 11:13 | 54.06744 | 106.85749 | 18032 ft | 215 kts | 227° |
| 2026-04-28 11:13 | 54.05621 | 106.84039 | 18013 ft | 216 kts | 227° |
| 2026-04-28 11:14 | 54.04508 | 106.82349 | 18015 ft | 216 kts | 227° |
| 2026-04-28 11:14 | 54.03390 | 106.80653 | 18025 ft | 216 kts | 227° |
| 2026-04-28 11:14 | 54.02273 | 106.78958 | 18012 ft | 217 kts | 227° |
| 2026-04-28 11:14 | 54.01144 | 106.77248 | 18024 ft | 216 kts | 227° |
| 2026-04-28 11:15 | 54.00024 | 106.75555 | 18006 ft | 217 kts | 227° |
| 2026-04-28 11:15 | 53.98904 | 106.73862 | 18003 ft | 217 kts | 226° |
| 2026-04-28 11:15 | 53.97778 | 106.72161 | 18000 ft | 217 kts | 227° |
| 2026-04-28 11:15 | 53.96641 | 106.70442 | 17980 ft | 217 kts | 227° |
| 2026-04-28 11:16 | 53.95530 | 106.68763 | 18002 ft | 216 kts | 227° |
| 2026-04-28 11:16 | 53.94404 | 106.67065 | 17987 ft | 217 kts | 226° |
| 2026-04-28 11:16 | 53.93282 | 106.65373 | 17998 ft | 216 kts | 226° |
| 2026-04-28 11:16 | 53.92159 | 106.63682 | 17998 ft | 217 kts | 226° |
| 2026-04-28 11:17 | 53.91023 | 106.61974 | 17983 ft | 217 kts | 226° |
| 2026-04-28 11:17 | 53.89902 | 106.60291 | 18002 ft | 216 kts | 226° |
| 2026-04-28 11:17 | 53.88765 | 106.58583 | 17988 ft | 217 kts | 227° |
| 2026-04-28 11:17 | 53.87653 | 106.56911 | 18003 ft | 216 kts | 227° |
| 2026-04-28 11:18 | 53.86517 | 106.55205 | 17993 ft | 217 kts | 227° |
| 2026-04-28 11:18 | 53.85393 | 106.53519 | 17982 ft | 217 kts | 227° |
| 2026-04-28 11:18 | 53.84265 | 106.51830 | 18004 ft | 216 kts | 227° |
| 2026-04-28 11:18 | 53.83136 | 106.50143 | 17991 ft | 217 kts | 227° |
| 2026-04-28 11:19 | 53.82014 | 106.48467 | 18001 ft | 216 kts | 227° |
| 2026-04-28 11:19 | 53.80889 | 106.46787 | 17997 ft | 216 kts | 227° |
| 2026-04-28 11:19 | 53.79759 | 106.45097 | 17980 ft | 217 kts | 227° |
| 2026-04-28 11:19 | 53.78640 | 106.43425 | 18000 ft | 216 kts | 227° |
| 2026-04-28 11:20 | 53.77519 | 106.41753 | 17988 ft | 216 kts | 227° |
| 2026-04-28 11:20 | 53.76390 | 106.40070 | 17994 ft | 216 kts | 227° |
| 2026-04-28 11:20 | 53.75266 | 106.38398 | 18008 ft | 215 kts | 227° |
| 2026-04-28 11:20 | 53.74141 | 106.36726 | 17982 ft | 216 kts | 227° |
| 2026-04-28 11:21 | 53.73024 | 106.35066 | 17997 ft | 215 kts | 227° |
| 2026-04-28 11:21 | 53.71898 | 106.33393 | 17994 ft | 216 kts | 226° |
| 2026-04-28 11:21 | 53.70761 | 106.31703 | 17981 ft | 216 kts | 226° |
| 2026-04-28 11:21 | 53.69642 | 106.30039 | 17994 ft | 216 kts | 226° |
| 2026-04-28 11:22 | 53.68524 | 106.28380 | 17987 ft | 216 kts | 226° |
| 2026-04-28 11:22 | 53.67386 | 106.26693 | 18003 ft | 215 kts | 226° |
| 2026-04-28 11:22 | 53.66269 | 106.25040 | 18000 ft | 216 kts | 226° |
| 2026-04-28 11:22 | 53.65146 | 106.23378 | 17990 ft | 216 kts | 226° |
| 2026-04-28 11:23 | 53.64019 | 106.21714 | 18008 ft | 216 kts | 226° |
| 2026-04-28 11:23 | 53.62881 | 106.20033 | 17986 ft | 217 kts | 226° |
| 2026-04-28 11:23 | 53.61738 | 106.18347 | 17990 ft | 217 kts | 226° |
| 2026-04-28 11:23 | 53.60621 | 106.16702 | 17999 ft | 217 kts | 226° |
| 2026-04-28 11:24 | 53.59488 | 106.15034 | 17998 ft | 217 kts | 226° |
| 2026-04-28 11:24 | 53.58351 | 106.13362 | 17993 ft | 217 kts | 226° |
| 2026-04-28 11:24 | 53.57210 | 106.11687 | 18007 ft | 216 kts | 226° |
| 2026-04-28 11:24 | 53.56080 | 106.10023 | 17997 ft | 217 kts | 226° |
| 2026-04-28 11:25 | 53.54942 | 106.08349 | 17997 ft | 218 kts | 226° |
| 2026-04-28 11:25 | 53.53809 | 106.06684 | 17993 ft | 218 kts | 226° |
| 2026-04-28 11:25 | 53.52663 | 106.05004 | 17982 ft | 218 kts | 226° |
| 2026-04-28 11:25 | 53.51524 | 106.03336 | 17997 ft | 217 kts | 226° |
| 2026-04-28 11:26 | 53.50392 | 106.01676 | 18001 ft | 217 kts | 226° |
| 2026-04-28 11:26 | 53.49263 | 106.00022 | 17985 ft | 217 kts | 226° |
| 2026-04-28 11:26 | 53.48119 | 105.98347 | 18004 ft | 217 kts | 226° |
| 2026-04-28 11:26 | 53.46979 | 105.96684 | 17999 ft | 218 kts | 226° |
| 2026-04-28 11:27 | 53.45835 | 105.95013 | 17970 ft | 219 kts | 226° |
| 2026-04-28 11:27 | 53.44699 | 105.93356 | 17985 ft | 218 kts | 226° |
| 2026-04-28 11:27 | 53.43558 | 105.91693 | 17994 ft | 217 kts | 226° |
| 2026-04-28 11:27 | 53.42424 | 105.90039 | 17998 ft | 218 kts | 226° |
| 2026-04-28 11:28 | 53.41273 | 105.88363 | 17977 ft | 219 kts | 226° |
| 2026-04-28 11:28 | 53.40140 | 105.86713 | 17994 ft | 218 kts | 226° |
| 2026-04-28 11:28 | 53.38994 | 105.85049 | 17993 ft | 217 kts | 226° |
| 2026-04-28 11:28 | 53.37847 | 105.83381 | 17997 ft | 217 kts | 226° |
| 2026-04-28 11:29 | 53.36711 | 105.81731 | 17998 ft | 217 kts | 226° |
| 2026-04-28 11:29 | 53.35573 | 105.80080 | 17984 ft | 218 kts | 226° |
| 2026-04-28 11:29 | 53.34429 | 105.78415 | 18009 ft | 217 kts | 226° |
| 2026-04-28 11:29 | 53.33290 | 105.76756 | 17999 ft | 218 kts | 226° |
| 2026-04-28 11:30 | 53.32152 | 105.75107 | 17970 ft | 218 kts | 226° |
| 2026-04-28 11:30 | 53.29861 | 105.71807 | 17993 ft | 216 kts | 226° |
| 2026-04-28 11:30 | 53.28727 | 105.70173 | 17987 ft | 217 kts | 226° |
| 2026-04-28 11:31 | 53.27582 | 105.68525 | 18001 ft | 217 kts | 226° |
| 2026-04-28 11:31 | 53.26443 | 105.66890 | 17982 ft | 218 kts | 226° |
| 2026-04-28 11:31 | 53.25297 | 105.65243 | 17994 ft | 217 kts | 226° |
| 2026-04-28 11:31 | 53.24163 | 105.63615 | 17989 ft | 218 kts | 226° |
| 2026-04-28 11:32 | 53.23003 | 105.61951 | 17988 ft | 218 kts | 226° |
| 2026-04-28 11:32 | 53.21864 | 105.60322 | 17996 ft | 217 kts | 226° |
| 2026-04-28 11:32 | 53.20728 | 105.58693 | 17990 ft | 218 kts | 226° |
| 2026-04-28 11:32 | 53.19571 | 105.57037 | 18003 ft | 217 kts | 226° |
| 2026-04-28 11:33 | 53.18431 | 105.55408 | 17993 ft | 217 kts | 226° |
| 2026-04-28 11:33 | 53.17298 | 105.53787 | 17996 ft | 217 kts | 226° |
| 2026-04-28 11:33 | 53.16142 | 105.52135 | 17988 ft | 217 kts | 226° |
| 2026-04-28 11:33 | 53.15011 | 105.50521 | 17988 ft | 217 kts | 226° |
| 2026-04-28 11:34 | 53.13854 | 105.48871 | 17997 ft | 216 kts | 226° |
| 2026-04-28 11:34 | 53.12714 | 105.47246 | 17977 ft | 217 kts | 226° |
| 2026-04-28 11:34 | 53.11565 | 105.45612 | 18011 ft | 216 kts | 226° |
| 2026-04-28 11:34 | 53.10433 | 105.43999 | 18010 ft | 216 kts | 226° |
| 2026-04-28 11:35 | 53.09282 | 105.42361 | 17986 ft | 217 kts | 226° |
| 2026-04-28 11:35 | 53.08139 | 105.40737 | 17998 ft | 216 kts | 226° |
| 2026-04-28 11:35 | 53.07006 | 105.39128 | 17997 ft | 216 kts | 226° |
| 2026-04-28 11:35 | 53.05873 | 105.37519 | 18008 ft | 216 kts | 226° |
| 2026-04-28 11:36 | 53.04726 | 105.35892 | 18003 ft | 216 kts | 226° |
| 2026-04-28 11:36 | 53.03585 | 105.34278 | 17993 ft | 217 kts | 225° |
| 2026-04-28 11:36 | 53.02446 | 105.32664 | 18002 ft | 216 kts | 225° |
| 2026-04-28 11:36 | 53.01294 | 105.31036 | 17995 ft | 217 kts | 225° |
| 2026-04-28 11:37 | 53.00171 | 105.29466 | 17916 ft | 211 kts | 225° |
| 2026-04-28 11:37 | 52.99038 | 105.27893 | 17580 ft | 210 kts | 225° |
| 2026-04-28 11:37 | 52.97930 | 105.26388 | 17262 ft | 207 kts | 224° |
| 2026-04-28 11:37 | 52.96809 | 105.24908 | 16836 ft | 208 kts | 223° |
| 2026-04-28 11:38 | 52.95670 | 105.23417 | 16404 ft | 210 kts | 223° |
| 2026-04-28 11:38 | 52.94547 | 105.21938 | 16045 ft | 207 kts | 224° |
| 2026-04-28 11:38 | 52.93439 | 105.20450 | 15663 ft | 206 kts | 224° |
| 2026-04-28 11:38 | 52.92331 | 105.18933 | 15235 ft | 207 kts | 224° |
| 2026-04-28 11:39 | 52.91206 | 105.17454 | 14862 ft | 207 kts | 221° |
| 2026-04-28 11:39 | 52.90046 | 105.16108 | 14523 ft | 204 kts | 220° |
| 2026-04-28 11:39 | 52.88884 | 105.14771 | 14144 ft | 204 kts | 220° |
| 2026-04-28 11:39 | 52.87718 | 105.13398 | 13737 ft | 204 kts | 220° |
| 2026-04-28 11:40 | 52.86583 | 105.12032 | 13405 ft | 201 kts | 220° |
| 2026-04-28 11:40 | 52.85471 | 105.10678 | 13078 ft | 199 kts | 220° |
| 2026-04-28 11:40 | 52.84354 | 105.09333 | 12699 ft | 199 kts | 219° |
| 2026-04-28 11:40 | 52.83244 | 105.08013 | 12313 ft | 199 kts | 219° |
| 2026-04-28 11:41 | 52.82127 | 105.06692 | 11963 ft | 197 kts | 219° |
| 2026-04-28 11:41 | 52.81031 | 105.05366 | 11610 ft | 196 kts | 219° |
| 2026-04-28 11:41 | 52.79927 | 105.04047 | 11175 ft | 199 kts | 218° |
| 2026-04-28 11:41 | 52.78793 | 105.02715 | 10773 ft | 200 kts | 218° |
| 2026-04-28 11:42 | 52.77688 | 105.01369 | 10419 ft | 198 kts | 219° |
| 2026-04-28 11:42 | 52.76603 | 105.00017 | 10036 ft | 198 kts | 218° |
| 2026-04-28 11:42 | 52.75485 | 104.98664 | 9572 ft | 201 kts | 218° |
| 2026-04-28 11:42 | 52.74352 | 104.97280 | 9030 ft | 208 kts | 218° |
| 2026-04-28 11:43 | 52.73208 | 104.95830 | 8639 ft | 206 kts | 219° |
| 2026-04-28 11:43 | 52.72126 | 104.94378 | 8322 ft | 202 kts | 221° |
| 2026-04-28 11:43 | 52.71034 | 104.92899 | 7850 ft | 205 kts | 220° |
| 2026-04-28 11:43 | 52.69890 | 104.91449 | 7324 ft | 210 kts | 218° |
| 2026-04-28 11:44 | 52.68718 | 104.90068 | 6931 ft | 209 kts | 216° |
| 2026-04-28 11:44 | 52.67515 | 104.88721 | 6448 ft | 212 kts | 216° |
| 2026-04-28 11:44 | 52.66275 | 104.87366 | 5940 ft | 215 kts | 216° |
| 2026-04-28 11:44 | 52.65048 | 104.86022 | 5576 ft | 211 kts | 217° |
| 2026-04-28 11:45 | 52.63837 | 104.84702 | 5185 ft | 209 kts | 217° |
| 2026-04-28 11:45 | 52.62647 | 104.83420 | 5021 ft | 197 kts | 217° |
| 2026-04-28 11:45 | 52.61533 | 104.82232 | 4795 ft | 191 kts | 217° |
| 2026-04-28 11:45 | 52.60421 | 104.81062 | 4542 ft | 188 kts | 217° |
| 2026-04-28 11:46 | 52.59334 | 104.79939 | 4299 ft | 185 kts | 218° |
| 2026-04-28 11:46 | 52.58214 | 104.78773 | 4195 ft | 190 kts | 218° |
| 2026-04-28 11:46 | 52.57131 | 104.77635 | 4327 ft | 182 kts | 219° |
| 2026-04-28 11:46 | 52.56091 | 104.76499 | 4407 ft | 177 kts | 220° |
| 2026-04-28 11:47 | 52.55045 | 104.75352 | 4327 ft | 183 kts | 220° |
| 2026-04-28 11:47 | 52.53989 | 104.74183 | 4341 ft | 182 kts | 220° |
| 2026-04-28 11:47 | 52.52966 | 104.73029 | 4398 ft | 178 kts | 221° |
| 2026-04-28 11:47 | 52.51939 | 104.71864 | 4316 ft | 182 kts | 220° |
| 2026-04-28 11:48 | 52.50871 | 104.70718 | 4287 ft | 183 kts | 218° |
| 2026-04-28 11:48 | 52.49792 | 104.69605 | 4317 ft | 180 kts | 219° |
| 2026-04-28 11:48 | 52.48734 | 104.68503 | 4259 ft | 183 kts | 218° |
| 2026-04-28 11:48 | 52.47633 | 104.67413 | 4231 ft | 184 kts | 218° |
| 2026-04-28 11:49 | 52.46570 | 104.66278 | 4255 ft | 181 kts | 221° |
| 2026-04-28 11:49 | 52.45530 | 104.65121 | 4205 ft | 184 kts | 219° |
| 2026-04-28 11:49 | 52.44453 | 104.63995 | 4177 ft | 184 kts | 219° |
| 2026-04-28 11:49 | 52.43388 | 104.62839 | 4194 ft | 182 kts | 221° |
| 2026-04-28 11:50 | 52.42335 | 104.61693 | 4167 ft | 183 kts | 220° |
| 2026-04-28 11:50 | 52.41245 | 104.60593 | 4146 ft | 184 kts | 218° |
| 2026-04-28 11:50 | 52.40138 | 104.59556 | 4167 ft | 182 kts | 216° |
| 2026-04-28 11:50 | 52.39044 | 104.58563 | 4219 ft | 178 kts | 216° |
| 2026-04-28 11:51 | 52.38002 | 104.57626 | 4340 ft | 163 kts | 217° |
| 2026-04-28 11:51 | 52.37008 | 104.56748 | 4151 ft | 159 kts | 216° |
| 2026-04-28 11:51 | 52.36011 | 104.55949 | 3880 ft | 161 kts | 214° |
| 2026-04-28 11:51 | 52.35011 | 104.55175 | 3699 ft | 155 kts | 218° |
| 2026-04-28 11:52 | 52.34121 | 104.54270 | 3605 ft | 147 kts | 224° |
| 2026-04-28 11:52 | 52.33289 | 104.53355 | 3495 ft | 142 kts | 224° |
| 2026-04-28 11:52 | 52.32458 | 104.52540 | 3323 ft | 140 kts | 219° |
| 2026-04-28 11:52 | 52.31502 | 104.52115 | 3087 ft | 151 kts | 190° |
| 2026-04-28 11:53 | 52.30481 | 104.52495 | 2915 ft | 147 kts | 164° |
| 2026-04-28 11:53 | 52.29547 | 104.53121 | 2750 ft | 145 kts | 163° |
| 2026-04-28 11:53 | 52.28630 | 104.53757 | 2600 ft | 143 kts | 161° |
| 2026-04-28 11:53 | 52.27690 | 104.53924 | 2505 ft | 130 kts | 196° |
| 2026-04-28 11:54 | 52.26897 | 104.53282 | 2358 ft | 128 kts | 226° |
| 2026-04-28 11:54 | 52.26337 | 104.52177 | 2358 ft | 123 kts | 238° |
| 2026-04-28 11:54 | 52.25827 | 104.51077 | 2419 ft | 119 kts | 241° |
| 2026-04-28 11:54 | 52.25396 | 104.49902 | 2374 ft | 120 kts | 249° |
| 2026-04-28 11:55 | 52.25193 | 104.48599 | 2317 ft | 122 kts | 263° |
| 2026-04-28 11:55 | 52.25029 | 104.47262 | 2323 ft | 119 kts | 265° |
| 2026-04-28 11:55 | 52.24880 | 104.45905 | 2291 ft | 122 kts | 266° |
| 2026-04-28 11:55 | 52.25057 | 104.44584 | 2183 ft | 121 kts | 303° |
| 2026-04-28 11:56 | 52.25558 | 104.43472 | 1997 ft | 122 kts | 303° |
| 2026-04-28 11:56 | 52.25966 | 104.42255 | 1823 ft | 125 kts | 294° |
| 2026-04-28 11:56 | 52.26322 | 104.40940 | 1668 ft | 119 kts | 290° |
| 2026-04-28 11:56 | 52.26603 | 104.39881 | 1643 ft | 83 kts | 291° |
| 2026-04-28 11:57 | 52.26742 | 104.39358 | 1632 ft | 15 kts | 299° |
| 2026-04-28 11:57 | 52.26699 | 104.39291 | 1634 ft | 7 kts | 200° |
| 2026-04-28 11:57 | 52.26675 | 104.39274 | 1635 ft | 0 kts | 204° |
| 2026-04-28 11:57 | 52.26637 | 104.39246 | 1639 ft | 13 kts | 204° |
| 2026-04-28 11:58 | 52.26588 | 104.39211 | 1645 ft | 1 kts | 205° |
| 2026-04-28 11:58 | 52.26515 | 104.39153 | 1653 ft | 15 kts | 229° |
| 2026-04-28 11:58 | 52.26541 | 104.39012 | 1651 ft | 13 kts | 294° |
| 2026-04-28 11:58 | 52.26578 | 104.38870 | 1646 ft | 13 kts | 295° |
| 2026-04-28 11:59 | 52.26641 | 104.38640 | 1638 ft | 25 kts | 294° |
| 2026-04-28 11:59 | 52.26712 | 104.38371 | 1630 ft | 27 kts | 294° |
| 2026-04-28 11:59 | 52.26789 | 104.38082 | 1624 ft | 28 kts | 294° |
| 2026-04-28 11:59 | 52.26865 | 104.37800 | 1620 ft | 24 kts | 294° |
| 2026-04-28 12:00 | 52.26928 | 104.37563 | 1615 ft | 21 kts | 292° |
| 2026-04-28 12:00 | 52.26994 | 104.37310 | 1610 ft | 23 kts | 289° |
| 2026-04-28 12:00 | 52.26955 | 104.37121 | 1616 ft | 13 kts | 229° |
| 2026-04-28 12:00 | 52.26941 | 104.37003 | 1619 ft | 12 kts | 290° |
| 2026-04-28 12:01 | 52.26987 | 104.36797 | 1615 ft | 21 kts | 292° |
| 2026-04-28 12:01 | 52.27036 | 104.36573 | 1608 ft | 20 kts | 290° |
| 2026-04-28 12:01 | 52.27085 | 104.36352 | 1600 ft | 20 kts | 289° |
| 2026-04-28 12:01 | 52.27092 | 104.36157 | 1601 ft | 15 kts | 267° |
| 2026-04-28 12:02 | 52.27087 | 104.35990 | 1602 ft | 16 kts | 266° |
| 2026-04-28 12:02 | 52.27135 | 104.35855 | 1598 ft | 15 kts | 350° |
| 2026-04-28 12:02 | 52.27153 | 104.35736 | 1593 ft | 14 kts | 261° |
| 2026-04-28 12:02 | 52.27144 | 104.35520 | 1589 ft | 18 kts | 261° |
| 2026-04-28 12:03 | 52.27072 | 104.35499 | 1594 ft | 14 kts | 139° |
| 2026-04-28 12:03 | 52.27003 | 104.35591 | 1602 ft | 8 kts | 141° |
| 2026-04-28 12:03 | 52.27012 | 104.35697 | 1604 ft | 11 kts | 73° |
| 2026-04-28 12:03 | 52.26992 | 104.35722 | 1606 ft | 0 kts | 231° |